Sds Green — ICOK — position and weather

sailwx.info

Track history (hours):
 
Tides and Currents Weather Stations Pressure Air Temp Water Temp Dewpoint Dewpoint Depression Visibility Wind Speed Wind Dir Waves Ship Positions

Sds Green

Last reported at 2016-Sep-26 11:33 UTC. Time now 2016-Oct-01 03:17 UTC.
Position N 38°19' E 012°49'.

Length 108 m; draft 6.2 m.

Type: Cargo ship. MMSI: 247292200.

Date/timePositionNaut miles runAvg speedWind from/ knotsBaromVisibWave heightAir tempDewpointWater temp
2016-Sep-26 11:33N 38°19' E 012°49'3310.8
2016-Sep-26 08:33N 38°19' E 013°31'6611.0
2016-Sep-26 02:34N 38°19' E 014°55'1111.0
2016-Sep-26 01:33N 38°19' E 015°09'1110.8
2016-Sep-26 00:34N 38°20' E 015°23'22 7.3
2016-Sep-25 21:34N 38°01' E 015°36'407 8.1
2016-Sep-23 19:18N 44°32' E 013°03'1910.8
2016-Sep-23 17:34N 44°50' E 012°54'1111.1
2016-Sep-23 16:33N 44°60' E 012°47'1010.5
2016-Sep-23 15:33N 45°08' E 012°38'17 8.3
2016-Sep-23 13:33N 45°13' E 012°16'0 0.0
2016-Sep-23 09:33N 45°13' E 012°16'0 0.0
2016-Sep-23 06:33N 45°13' E 012°16'0 0.0
2016-Sep-23 04:32N 45°13' E 012°16'0 0.0
2016-Sep-23 03:33N 45°13' E 012°16'0 0.0
2016-Sep-23 02:32N 45°13' E 012°16'0 0.0
2016-Sep-23 01:33N 45°13' E 012°16'0 0.0
2016-Sep-23 00:32N 45°13' E 012°16'0 0.0
2016-Sep-22 23:32N 45°13' E 012°16'0 0.0
2016-Sep-22 20:32N 45°13' E 012°16'0 0.0
2016-Sep-22 12:32N 45°13' E 012°16'0 0.0
2016-Sep-22 04:31N 45°13' E 012°16'0 0.0
2016-Sep-22 03:33N 45°13' E 012°16'0 0.0
2016-Sep-22 00:31N 45°13' E 012°16'0 0.0
2016-Sep-21 23:33N 45°13' E 012°16'0 0.0
2016-Sep-21 22:33N 45°13' E 012°16'0 0.0
2016-Sep-21 19:33N 45°13' E 012°16'0 0.0
2016-Sep-21 16:32N 45°13' E 012°16'0 0.0
2016-Sep-21 09:33N 45°13' E 012°16'0 0.0
2016-Sep-21 08:32N 45°13' E 012°16'5 1.8
2016-Sep-21 05:33N 45°14' E 012°23'0 0.0
2016-Sep-21 03:33N 45°14' E 012°23'0 0.0
2016-Sep-21 02:33N 45°14' E 012°23'60 6.7
2016-Sep-20 17:32N 45°33' E 013°44'0 0.0
2016-Sep-20 14:29N 45°33' E 013°44'0 0.0
2016-Sep-20 13:32N 45°33' E 013°44'0 0.0
2016-Sep-20 10:32N 45°33' E 013°44'0 0.0
2016-Sep-20 08:32N 45°33' E 013°44'0 0.0
2016-Sep-20 07:29N 45°33' E 013°44'0 0.0
2016-Sep-20 06:26N 45°33' E 013°44'0 0.0
2016-Sep-20 02:32N 45°33' E 013°44'0 0.0
2016-Sep-19 23:32N 45°33' E 013°44'0 0.0
2016-Sep-19 19:32N 45°33' E 013°44'0 0.0
2016-Sep-19 18:26N 45°33' E 013°44'0 0.0
2016-Sep-19 16:29N 45°33' E 013°44'0 0.0
2016-Sep-19 14:32N 45°33' E 013°44'0 0.0
2016-Sep-19 13:32N 45°33' E 013°44'0 0.0
2016-Sep-19 12:32N 45°33' E 013°44'0 0.0
2016-Sep-19 11:26N 45°33' E 013°44'0 0.0
2016-Sep-19 09:32N 45°33' E 013°44'0 0.0
2016-Sep-19 07:32N 45°33' E 013°44'0 0.0
2016-Sep-19 06:32N 45°33' E 013°44'0 0.0
2016-Sep-19 03:23N 45°33' E 013°44'0 0.0
2016-Sep-19 02:32N 45°33' E 013°44'0 0.0
2016-Sep-19 00:32N 45°33' E 013°44'0 0.0
2016-Sep-18 19:33N 45°33' E 013°44'0 0.0
2016-Sep-18 15:33N 45°33' E 013°44'0 0.0
2016-Sep-18 14:33N 45°33' E 013°44'0 0.0
2016-Sep-18 10:33N 45°33' E 013°44'0 0.0
2016-Sep-18 09:30N 45°33' E 013°44'0 0.0
2016-Sep-18 02:27N 45°33' E 013°44'0 0.0
2016-Sep-18 01:33N 45°33' E 013°44'0 0.0
2016-Sep-18 00:30N 45°33' E 013°44'0 0.0
2016-Sep-17 22:33N 45°33' E 013°44'0 0.0
2016-Sep-17 21:33N 45°33' E 013°44'0 0.0
2016-Sep-17 20:30N 45°33' E 013°44'0 0.0
2016-Sep-17 19:15N 45°33' E 013°44'0 0.0
2016-Sep-17 13:30N 45°33' E 013°44'0 0.0
2016-Sep-17 12:33N 45°33' E 013°44'0 0.0
2016-Sep-17 10:33N 45°33' E 013°44'0 0.0
2016-Sep-17 09:33N 45°33' E 013°44'0 0.0
2016-Sep-17 08:30N 45°33' E 013°44'0 0.0
2016-Sep-17 07:30N 45°33' E 013°44'0 0.0
2016-Sep-17 05:33N 45°33' E 013°44'0 0.0
2016-Sep-17 04:33N 45°33' E 013°44'0 0.0
2016-Sep-17 00:33N 45°33' E 013°44'0 0.0
2016-Sep-16 17:33N 45°33' E 013°44'0 0.0
2016-Sep-16 15:33N 45°33' E 013°44'0 0.0
2016-Sep-16 12:33N 45°33' E 013°44'  
Track history (hours):
 
Tides and Currents Weather Stations Pressure Air Temp Water Temp Dewpoint Dewpoint Depression Visibility Wind Speed Wind Dir Waves Ship Positions

Sds Green

Last reported at 2016-Sep-26 11:33 UTC. Time now 2016-Oct-01 03:17 UTC.
Position N 38°19' E 012°49'.

Length 108 m; draft 6.2 m.

Type: Cargo ship. MMSI: 247292200.

Date/timePositionNaut miles runAvg speedWind from/ knotsBaromVisibWave heightAir tempDewpointWater temp
2016-Sep-26 11:33N 38°19' E 012°49'3310.8
2016-Sep-26 08:33N 38°19' E 013°31'6611.0
2016-Sep-26 02:34N 38°19' E 014°55'1111.0
2016-Sep-26 01:33N 38°19' E 015°09'1110.8
2016-Sep-26 00:34N 38°20' E 015°23'22 7.3
2016-Sep-25 21:34N 38°01' E 015°36'407 8.1
2016-Sep-23 19:18N 44°32' E 013°03'1910.8
2016-Sep-23 17:34N 44°50' E 012°54'1111.1
2016-Sep-23 16:33N 44°60' E 012°47'1010.5
2016-Sep-23 15:33N 45°08' E 012°38'17 8.3
2016-Sep-23 13:33N 45°13' E 012°16'0 0.0
2016-Sep-23 09:33N 45°13' E 012°16'0 0.0
2016-Sep-23 06:33N 45°13' E 012°16'0 0.0
2016-Sep-23 04:32N 45°13' E 012°16'0 0.0
2016-Sep-23 03:33N 45°13' E 012°16'0 0.0
2016-Sep-23 02:32N 45°13' E 012°16'0 0.0
2016-Sep-23 01:33N 45°13' E 012°16'0 0.0
2016-Sep-23 00:32N 45°13' E 012°16'0 0.0
2016-Sep-22 23:32N 45°13' E 012°16'0 0.0
2016-Sep-22 20:32N 45°13' E 012°16'0 0.0
2016-Sep-22 12:32N 45°13' E 012°16'0 0.0
2016-Sep-22 04:31N 45°13' E 012°16'0 0.0
2016-Sep-22 03:33N 45°13' E 012°16'0 0.0
2016-Sep-22 00:31N 45°13' E 012°16'0 0.0
2016-Sep-21 23:33N 45°13' E 012°16'0 0.0
2016-Sep-21 22:33N 45°13' E 012°16'0 0.0
2016-Sep-21 19:33N 45°13' E 012°16'0 0.0
2016-Sep-21 16:32N 45°13' E 012°16'0 0.0
2016-Sep-21 09:33N 45°13' E 012°16'0 0.0
2016-Sep-21 08:32N 45°13' E 012°16'5 1.8
2016-Sep-21 05:33N 45°14' E 012°23'0 0.0
2016-Sep-21 03:33N 45°14' E 012°23'0 0.0
2016-Sep-21 02:33N 45°14' E 012°23'60 6.7
2016-Sep-20 17:32N 45°33' E 013°44'0 0.0
2016-Sep-20 14:29N 45°33' E 013°44'0 0.0
2016-Sep-20 13:32N 45°33' E 013°44'0 0.0
2016-Sep-20 10:32N 45°33' E 013°44'0 0.0
2016-Sep-20 08:32N 45°33' E 013°44'0 0.0
2016-Sep-20 07:29N 45°33' E 013°44'0 0.0
2016-Sep-20 06:26N 45°33' E 013°44'0 0.0
2016-Sep-20 02:32N 45°33' E 013°44'0 0.0
2016-Sep-19 23:32N 45°33' E 013°44'0 0.0
2016-Sep-19 19:32N 45°33' E 013°44'0 0.0
2016-Sep-19 18:26N 45°33' E 013°44'0 0.0
2016-Sep-19 16:29N 45°33' E 013°44'0 0.0
2016-Sep-19 14:32N 45°33' E 013°44'0 0.0
2016-Sep-19 13:32N 45°33' E 013°44'0 0.0
2016-Sep-19 12:32N 45°33' E 013°44'0 0.0
2016-Sep-19 11:26N 45°33' E 013°44'0 0.0
2016-Sep-19 09:32N 45°33' E 013°44'0 0.0
2016-Sep-19 07:32N 45°33' E 013°44'0 0.0
2016-Sep-19 06:32N 45°33' E 013°44'0 0.0
2016-Sep-19 03:23N 45°33' E 013°44'0 0.0
2016-Sep-19 02:32N 45°33' E 013°44'0 0.0
2016-Sep-19 00:32N 45°33' E 013°44'0 0.0
2016-Sep-18 19:33N 45°33' E 013°44'0 0.0
2016-Sep-18 15:33N 45°33' E 013°44'0 0.0
2016-Sep-18 14:33N 45°33' E 013°44'0 0.0
2016-Sep-18 10:33N 45°33' E 013°44'0 0.0
2016-Sep-18 09:30N 45°33' E 013°44'0 0.0
2016-Sep-18 02:27N 45°33' E 013°44'0 0.0
2016-Sep-18 01:33N 45°33' E 013°44'0 0.0
2016-Sep-18 00:30N 45°33' E 013°44'0 0.0
2016-Sep-17 22:33N 45°33' E 013°44'0 0.0
2016-Sep-17 21:33N 45°33' E 013°44'0 0.0
2016-Sep-17 20:30N 45°33' E 013°44'0 0.0
2016-Sep-17 19:15N 45°33' E 013°44'0 0.0
2016-Sep-17 13:30N 45°33' E 013°44'0 0.0
2016-Sep-17 12:33N 45°33' E 013°44'0 0.0
2016-Sep-17 10:33N 45°33' E 013°44'0 0.0
2016-Sep-17 09:33N 45°33' E 013°44'0 0.0
2016-Sep-17 08:30N 45°33' E 013°44'0 0.0
2016-Sep-17 07:30N 45°33' E 013°44'0 0.0
2016-Sep-17 05:33N 45°33' E 013°44'0 0.0
2016-Sep-17 04:33N 45°33' E 013°44'0 0.0
2016-Sep-17 00:33N 45°33' E 013°44'0 0.0
2016-Sep-16 17:33N 45°33' E 013°44'0 0.0
2016-Sep-16 15:33N 45°33' E 013°44'0 0.0
2016-Sep-16 12:33N 45°33' E 013°44'  

Dump ship's entire track history